createdAt,value
2022-09-12T00:03:06.007Z,10.50
2022-09-12T00:08:09.647Z,4.93
2022-09-12T00:13:14.610Z,4.87
2022-09-12T00:18:18.381Z,5.77
2022-09-12T00:23:25.488Z,6.00
2022-09-12T00:28:29.074Z,5.00
2022-09-12T00:33:32.981Z,4.80
2022-09-12T00:38:42.651Z,5.50
2022-09-12T00:43:53.938Z,6.83
2022-09-12T00:49:09.237Z,6.40
2022-09-12T00:54:17.712Z,8.13
2022-09-12T00:59:35.957Z,5.87
2022-09-12T01:04:41.122Z,5.23
2022-09-12T01:09:46.389Z,7.03
2022-09-12T01:14:49.952Z,5.60
2022-09-12T01:19:56.718Z,6.80
2022-09-12T01:25:27.943Z,6.60
2022-09-12T01:30:46.279Z,9.90
2022-09-12T01:36:11.830Z,11.40
2022-09-12T01:41:54.820Z,8.07
2022-09-12T01:46:58.427Z,5.43
2022-09-12T01:52:12.233Z,5.93
2022-09-12T01:57:28.190Z,6.93
2022-09-12T02:02:37.521Z,6.40
2022-09-12T02:07:50.427Z,6.43
2022-09-12T02:12:57.283Z,5.83
2022-09-12T02:18:04.016Z,7.20
2022-09-12T02:23:13.207Z,7.50
2022-09-12T02:28:34.664Z,9.50
2022-09-12T02:33:52.787Z,6.40
2022-09-12T02:38:58.075Z,12.03
2022-09-12T02:44:02.188Z,7.90
2022-09-12T02:49:05.840Z,8.10
2022-09-12T02:54:10.636Z,8.07
2022-09-12T02:59:18.269Z,7.40
2022-09-12T03:05:08.139Z,4.80
2022-09-12T03:10:31.784Z,6.50
2022-09-12T03:16:01.913Z,8.07
2022-09-12T03:21:12.408Z,6.63
2022-09-12T03:26:30.044Z,7.57
2022-09-12T03:31:33.936Z,5.90
2022-09-12T03:36:37.536Z,7.97
2022-09-12T03:41:41.699Z,9.17
2022-09-12T03:46:46.301Z,6.80
2022-09-12T03:51:50.767Z,6.53
2022-09-12T03:56:54.513Z,5.70
2022-09-12T04:01:58.525Z,9.20
2022-09-12T04:07:02.308Z,10.10
2022-09-12T04:12:06.107Z,7.93
2022-09-12T04:17:10.748Z,8.37
2022-09-12T04:22:14.668Z,8.07
2022-09-12T04:27:18.697Z,8.33
2022-09-12T04:32:23.218Z,7.27
2022-09-12T04:37:27.799Z,6.73
2022-09-12T04:42:31.883Z,6.23
2022-09-12T04:47:35.617Z,8.13
2022-09-12T04:52:39.612Z,7.70
2022-09-12T04:57:43.541Z,6.17
2022-09-12T05:02:47.568Z,7.77
2022-09-12T05:07:51.760Z,8.60
2022-09-12T05:12:55.269Z,7.13
2022-09-12T05:18:01.003Z,9.27
2022-09-12T05:23:19.037Z,7.77
2022-09-12T05:28:23.540Z,8.47
2022-09-12T05:33:27.747Z,7.87
2022-09-12T05:38:32.185Z,10.40
2022-09-12T05:43:37.231Z,7.33
2022-09-12T05:48:43.212Z,7.60
2022-09-12T05:53:49.803Z,8.93
2022-09-12T05:59:01.799Z,6.70
2022-09-12T06:04:07.568Z,8.93
2022-09-12T06:09:12.684Z,7.47
2022-09-12T06:14:17.791Z,11.83
2022-09-12T06:19:24.606Z,6.60
2022-09-12T06:24:29.314Z,6.47
2022-09-12T06:29:34.500Z,6.93
2022-09-12T06:34:39.055Z,7.53
2022-09-12T06:39:43.042Z,7.83
2022-09-12T06:44:46.447Z,5.63
2022-09-12T06:49:51.899Z,6.03
2022-09-12T06:54:55.572Z,4.00
2022-09-12T07:00:00.410Z,4.03
2022-09-12T07:05:05.203Z,6.73
2022-09-12T07:10:10.554Z,4.47
2022-09-12T07:15:14.883Z,5.90
2022-09-12T07:20:21.965Z,6.50
2022-09-12T07:25:26.379Z,3.23
2022-09-12T07:30:30.739Z,2.50
2022-09-12T07:35:35.920Z,5.60
2022-09-12T07:40:41.354Z,2.47
2022-09-12T07:45:45.786Z,2.97
2022-09-12T07:51:03.152Z,4.47
2022-09-12T07:56:17.090Z,1.57
2022-09-12T08:01:27.330Z,3.40
2022-09-12T08:06:36.797Z,2.17
2022-09-12T08:11:44.231Z,4.37
2022-09-12T08:16:49.555Z,2.83
2022-09-12T08:21:53.787Z,2.37
2022-09-12T08:27:01.360Z,3.73
2022-09-12T08:32:06.227Z,3.47
2022-09-12T08:37:13.169Z,2.53
2022-09-12T08:43:12.575Z,2.53
2022-09-12T08:48:24.785Z,2.08
2022-09-12T08:53:37.491Z,2.53
2022-09-12T08:58:48.906Z,2.38
2022-09-12T09:03:57.531Z,4.50
2022-09-12T09:09:34.846Z,2.40
2022-09-12T09:15:11.562Z,3.60
2022-09-12T09:20:43.288Z,2.33
2022-09-12T09:26:15.457Z,1.38
2022-09-12T09:31:27.075Z,2.03
2022-09-12T09:37:04.156Z,1.50
2022-09-12T09:42:41.762Z,1.52
2022-09-12T09:48:15.189Z,3.67
2022-09-12T09:53:52.158Z,3.10
2022-09-12T09:58:56.092Z,3.30
2022-09-12T10:04:00.333Z,1.90
2022-09-12T10:09:16.188Z,3.58
2022-09-12T10:14:35.973Z,2.25
2022-09-12T10:19:40.891Z,5.57
2022-09-12T10:24:50.678Z,2.28
2022-09-12T10:30:21.610Z,1.25
2022-09-12T10:35:31.097Z,2.42
2022-09-12T10:40:43.435Z,2.22
2022-09-12T10:45:47.396Z,3.92
2022-09-12T10:50:51.126Z,2.40
2022-09-12T10:56:14.497Z,3.83
2022-09-12T11:01:30.168Z,3.17
2022-09-12T11:06:51.636Z,2.92
2022-09-12T11:12:19.359Z,3.53
2022-09-12T11:17:52.838Z,1.67
2022-09-12T11:23:18.097Z,1.70
2022-09-12T11:28:37.069Z,2.38
2022-09-12T11:33:56.785Z,2.28
2022-09-12T11:39:55.743Z,2.03
2022-09-12T11:45:13.887Z,1.92
2022-09-12T11:50:30.527Z,2.03
2022-09-12T11:56:01.123Z,1.98
2022-09-12T12:01:15.678Z,1.85
2022-09-12T12:06:26.468Z,1.92
2022-09-12T12:11:38.458Z,1.13
2022-09-12T12:16:43.125Z,2.22
2022-09-12T12:21:50.004Z,2.85
2022-09-12T12:27:04.998Z,2.53
2022-09-12T12:32:21.620Z,3.42
2022-09-12T12:37:30.036Z,4.60
2022-09-12T12:42:58.527Z,1.75
2022-09-12T12:48:12.991Z,1.90
2022-09-12T12:53:28.979Z,4.75
2022-09-12T12:58:41.297Z,2.92
2022-09-12T13:04:00.874Z,2.45
2022-09-12T13:09:10.279Z,2.70
2022-09-12T13:14:36.385Z,2.58
2022-09-12T13:19:40.936Z,4.00
2022-09-12T13:24:52.123Z,2.05
2022-09-12T13:30:16.195Z,2.88
2022-09-12T13:35:31.965Z,2.45
2022-09-12T13:40:59.695Z,5.30
2022-09-12T13:46:03.513Z,5.78
2022-09-12T13:51:08.533Z,1.95
2022-09-12T13:56:20.539Z,3.28
2022-09-12T14:01:27.133Z,2.40
2022-09-12T14:06:38.518Z,2.85
2022-09-12T14:11:42.097Z,1.83
2022-09-12T14:16:45.330Z,3.83
2022-09-12T14:21:50.588Z,2.88
2022-09-12T14:26:57.437Z,3.13
2022-09-12T14:32:06.475Z,3.92
2022-09-12T14:37:10.097Z,3.38
2022-09-12T14:42:27.530Z,2.90
2022-09-12T14:47:39.192Z,3.60
2022-09-12T14:52:45.297Z,2.42
2022-09-12T14:57:51.237Z,2.47
2022-09-12T15:02:55.635Z,3.67
2022-09-12T15:08:01.795Z,7.22
2022-09-12T15:13:17.075Z,3.05
2022-09-12T15:18:21.469Z,5.00
2022-09-12T15:23:50.897Z,2.40
2022-09-12T15:28:54.755Z,2.40
2022-09-12T15:34:01.673Z,3.17
2022-09-12T15:39:06.034Z,3.90
2022-09-12T15:44:13.332Z,5.07
2022-09-12T15:49:16.928Z,2.28
2022-09-12T15:54:23.945Z,1.70
2022-09-12T15:59:27.283Z,2.13
2022-09-12T16:04:31.631Z,3.08
2022-09-12T16:09:35.247Z,4.65
2022-09-12T16:14:38.565Z,3.58
2022-09-12T16:19:44.137Z,7.22
2022-09-12T16:24:47.566Z,5.05
2022-09-12T16:29:51.928Z,6.47
2022-09-12T16:34:56.488Z,3.15
2022-09-12T16:40:01.234Z,3.40
2022-09-12T16:45:05.246Z,6.53
2022-09-12T16:50:09.078Z,3.60
2022-09-12T16:55:12.718Z,3.47
2022-09-12T17:00:16.646Z,2.80
2022-09-12T17:05:21.387Z,2.63
2022-09-12T17:10:24.945Z,6.05
2022-09-12T17:15:29.298Z,6.80
2022-09-12T17:20:35.888Z,4.18
2022-09-12T17:25:39.550Z,4.10
2022-09-12T17:30:43.777Z,4.37
2022-09-12T17:35:47.022Z,5.07
2022-09-12T17:40:59.405Z,4.77
2022-09-12T17:46:04.055Z,3.67
2022-09-12T17:51:13.044Z,4.37
2022-09-12T17:56:18.707Z,5.37
2022-09-12T18:01:42.012Z,3.77
2022-09-12T18:06:49.327Z,5.13
2022-09-12T18:11:55.607Z,4.87
2022-09-12T18:17:01.131Z,5.10
2022-09-12T18:22:06.948Z,19.10
2022-09-12T18:27:11.325Z,11.00
2022-09-12T18:32:15.190Z,15.97
2022-09-12T18:37:18.988Z,14.03
2022-09-12T18:42:22.345Z,13.67
2022-09-12T18:47:26.916Z,17.50
2022-09-12T18:52:32.562Z,24.90
2022-09-12T18:57:36.777Z,18.07
2022-09-12T19:02:40.947Z,22.27
2022-09-12T19:07:44.767Z,27.73
2022-09-12T19:12:48.907Z,21.67
2022-09-12T19:17:53.267Z,18.10
2022-09-12T19:22:57.340Z,23.77
2022-09-12T19:28:01.187Z,16.67
2022-09-12T19:33:04.756Z,22.30
2022-09-12T19:38:08.627Z,17.77
2022-09-12T19:43:12.787Z,20.80
2022-09-12T19:48:15.978Z,17.90
2022-09-12T19:53:19.885Z,28.57
2022-09-12T19:58:23.755Z,28.67
2022-09-12T20:03:27.364Z,18.83
2022-09-12T20:08:31.159Z,20.03
2022-09-12T20:13:34.467Z,27.50
2022-09-12T20:18:38.507Z,21.93
2022-09-12T20:23:41.935Z,20.77
2022-09-12T20:28:45.500Z,20.80
2022-09-12T20:33:51.748Z,16.17
2022-09-12T20:38:59.221Z,20.90
2022-09-12T20:44:03.117Z,18.83
2022-09-12T20:49:09.986Z,19.83
2022-09-12T20:54:14.034Z,16.67
2022-09-12T20:59:17.767Z,22.47
2022-09-12T21:04:21.507Z,23.67
2022-09-12T21:09:24.633Z,20.90
2022-09-12T21:14:30.963Z,17.63
2022-09-12T21:19:35.388Z,23.23
2022-09-12T21:24:38.895Z,28.20
2022-09-12T21:29:42.247Z,22.97
2022-09-12T21:34:48.136Z,23.53
2022-09-12T21:39:51.625Z,17.97
2022-09-12T21:44:56.071Z,22.50
2022-09-12T21:49:59.547Z,21.70
2022-09-12T21:55:07.435Z,25.27
2022-09-12T22:00:17.227Z,23.70
2022-09-12T22:05:22.397Z,23.40
2022-09-12T22:10:32.657Z,22.83
2022-09-12T22:15:52.498Z,25.73
2022-09-12T22:21:18.550Z,37.90
2022-09-12T22:26:22.399Z,41.33
2022-09-12T22:31:27.684Z,44.53
2022-09-12T22:36:32.783Z,35.27
2022-09-12T22:41:37.727Z,24.30
2022-09-12T22:46:41.802Z,23.63
2022-09-12T22:51:45.154Z,17.37
2022-09-12T22:56:48.501Z,19.07
2022-09-12T23:01:52.181Z,21.43
2022-09-12T23:06:56.340Z,17.83
2022-09-12T23:11:59.978Z,14.40
2022-09-12T23:17:04.451Z,17.87
2022-09-12T23:22:07.788Z,23.17
2022-09-12T23:27:11.170Z,24.70
2022-09-12T23:32:29.131Z,19.83
2022-09-12T23:37:47.829Z,23.00
2022-09-12T23:42:51.417Z,19.63
2022-09-12T23:47:54.847Z,24.47
2022-09-12T23:52:58.380Z,22.17
2022-09-12T23:58:01.804Z,19.00
